Time;durP1;ratioP1;P1;durP2;ratioP2;P2;SDS_P1;SDS_P2;PMS_P1;PMS_P2;Temp;Humidity;BMP_temperature;BMP_pressure;BME280_temperature;BME280_humidity;BME280_pressure;Samples;Min_cycle;Max_cycle;Signal;HPM_P1;HPM_P2
2022/07/08 00:00:19;;;;;;;9.75;4.80;;;;;;;18.24;70.99;99095.81;2210768;80;20944;-82
2022/07/08 00:03:19;;;;;;;15.95;4.65;;;;;;;18.20;71.35;99098.91;2210916;80;21300;-81
2022/07/08 00:06:19;;;;;;;12.25;4.67;;;;;;;18.20;71.92;99102.88;2210223;80;20932;-82
2022/07/08 00:09:20;;;;;;;7.95;4.37;;;;;;;18.19;71.67;99103.77;2210239;80;21066;-81
2022/07/08 00:12:20;;;;;;;11.18;4.35;;;;;;;18.19;71.92;99106.41;2210296;81;21356;-83
2022/07/08 00:15:21;;;;;;;10.00;4.58;;;;;;;18.18;71.37;99109.95;2210235;81;21336;-81
2022/07/08 00:18:21;;;;;;;9.00;4.47;;;;;;;18.17;71.75;99109.97;2210241;80;20960;-82
2022/07/08 00:21:21;;;;;;;9.25;4.17;;;;;;;18.14;71.94;99105.16;2210720;81;20952;-82
2022/07/08 00:24:22;;;;;;;9.55;4.70;;;;;;;18.12;71.75;99107.39;2210889;80;21333;-81
2022/07/08 00:27:22;;;;;;;9.55;5.37;;;;;;;18.13;71.78;99110.46;2210972;80;21048;-81
2022/07/08 00:30:23;;;;;;;8.73;5.30;;;;;;;18.19;71.48;99100.25;2210892;80;20921;-81
2022/07/08 00:33:23;;;;;;;10.00;5.53;;;;;;;18.17;71.89;99104.23;2210974;81;20936;-81
2022/07/08 00:36:24;;;;;;;11.80;5.47;;;;;;;18.25;72.35;99105.48;2210826;80;20976;-81
2022/07/08 00:39:24;;;;;;;12.18;5.47;;;;;;;18.20;71.14;99105.96;2210506;81;21008;-80
2022/07/08 00:42:24;;;;;;;12.70;5.53;;;;;;;18.07;71.26;99103.50;2210747;80;21021;-81
2022/07/08 00:45:25;;;;;;;18.07;6.25;;;;;;;18.13;71.51;99103.86;2210948;80;20988;-82
2022/07/08 00:48:25;;;;;;;27.20;6.30;;;;;;;18.12;71.28;99107.39;2210557;81;21347;-81
2022/07/08 00:51:25;;;;;;;49.58;8.78;;;;;;;18.16;71.71;99109.09;2210893;80;20959;-82
2022/07/08 00:54:26;;;;;;;13.68;5.20;;;;;;;18.11;71.10;99106.52;2211006;80;20929;-82
2022/07/08 00:57:26;;;;;;;13.83;5.33;;;;;;;18.05;71.38;99106.61;2210944;80;21325;-82
2022/07/08 01:00:27;;;;;;;13.75;5.83;;;;;;;17.99;71.62;99105.82;2210917;80;20968;-82
2022/07/08 01:03:27;;;;;;;14.35;5.47;;;;;;;18.05;72.91;99104.41;2210980;80;20956;-82
2022/07/08 01:06:27;;;;;;;8.38;5.28;;;;;;;18.08;71.92;99110.53;2210515;80;20964;-82
2022/07/08 01:09:28;;;;;;;10.93;6.00;;;;;;;17.99;71.67;99105.82;2211087;80;21059;-82
2022/07/08 01:12:28;;;;;;;8.85;5.55;;;;;;;17.96;72.43;99109.37;2211110;81;20993;-82
2022/07/08 01:15:29;;;;;;;10.65;5.83;;;;;;;17.94;72.13;99119.09;2211146;80;20944;-81
2022/07/08 01:18:29;;;;;;;8.08;6.03;;;;;;;17.97;71.90;99119.05;2211138;80;20968;-82
2022/07/08 01:21:29;;;;;;;13.93;6.03;;;;;;;17.86;72.05;99125.37;2210962;81;21324;-81
2022/07/08 01:24:30;;;;;;;10.05;5.70;;;;;;;17.76;72.63;99115.38;2211241;80;20889;-81
2022/07/08 01:27:30;;;;;;;11.63;5.55;;;;;;;17.78;72.54;99117.55;2210982;80;21040;-81
2022/07/08 01:30:31;;;;;;;8.43;5.53;;;;;;;17.74;72.41;99119.80;2211140;80;21343;-83
2022/07/08 01:33:32;;;;;;;12.58;5.80;;;;;;;17.82;72.69;99125.86;2211434;80;20945;-83
2022/07/08 01:36:32;;;;;;;16.02;6.05;;;;;;;17.85;72.20;99126.27;2210551;80;21285;-82
2022/07/08 01:42:54;;;;;;;11.95;5.75;;;;;;;17.97;73.31;99120.81;2239290;79;21124;-82
2022/07/08 01:45:55;;;;;;;15.83;5.47;;;;;;;18.01;73.98;99123.39;2190925;81;20975;-83
2022/07/08 01:48:55;;;;;;;13.05;5.45;;;;;;;18.08;73.32;99123.73;2190580;81;20948;-82
2022/07/08 01:51:55;;;;;;;7.20;4.58;;;;;;;18.07;72.54;99125.95;2190524;81;20947;-82
2022/07/08 01:54:56;;;;;;;10.23;4.70;;;;;;;18.02;71.70;99129.55;2190459;81;20995;-82
2022/07/08 01:57:56;;;;;;;8.93;4.70;;;;;;;17.98;71.11;99134.45;2190381;81;20956;-82
2022/07/08 02:00:57;;;;;;;10.68;4.72;;;;;;;17.92;71.33;99138.48;2190393;81;21336;-81
2022/07/08 02:03:57;;;;;;;12.65;5.45;;;;;;;17.91;71.69;99143.34;2190511;81;20963;-81
2022/07/08 02:06:57;;;;;;;16.40;5.28;;;;;;;17.78;71.22;99140.86;2190423;81;20917;-79
2022/07/08 02:09:58;;;;;;;8.18;5.55;;;;;;;17.67;70.97;99140.12;2190230;81;20917;-81
2022/07/08 02:12:58;;;;;;;9.20;5.25;;;;;;;17.69;71.78;99143.61;2190541;81;20943;-81
2022/07/08 02:15:59;;;;;;;12.58;5.92;;;;;;;17.59;71.08;99147.22;2190247;81;20972;-82
2022/07/08 02:18:59;;;;;;;8.85;5.70;;;;;;;17.52;71.68;99146.86;2190419;81;20991;-82
2022/07/08 02:21:59;;;;;;;10.78;5.87;;;;;;;17.55;71.96;99149.91;2190792;81;21356;-82
2022/07/08 02:25:00;;;;;;;11.83;6.62;;;;;;;17.54;72.10;99149.48;2190623;81;20955;-82
2022/07/08 02:28:00;;;;;;;11.40;6.67;;;;;;;17.58;72.37;99156.03;2190452;81;20971;-82
2022/07/08 02:31:01;;;;;;;11.08;5.90;;;;;;;17.66;72.43;99165.19;2190676;81;20956;-80
2022/07/08 02:34:01;;;;;;;12.43;5.17;;;;;;;17.68;72.15;99160.34;2190598;81;21328;-83
2022/07/08 02:37:02;;;;;;;17.12;5.50;;;;;;;17.97;75.15;99171.00;2190880;81;20939;-82
2022/07/08 02:40:02;;;;;;;13.72;6.28;;;;;;;18.59;74.96;99166.19;2190800;81;20944;-82
2022/07/08 02:43:02;;;;;;;20.62;5.50;;;;;;;19.05;74.03;99169.44;2175029;81;21439;-82
2022/07/08 02:46:03;;;;;;;11.85;5.60;;;;;;;19.36;73.17;99166.70;2174755;82;20948;-83
2022/07/08 02:49:03;;;;;;;10.50;5.55;;;;;;;19.60;71.80;99172.47;2175073;82;20980;-85
2022/07/08 02:52:03;;;;;;;10.93;6.97;;;;;;;19.63;70.30;99177.25;2176107;82;20975;-84
2022/07/08 02:55:04;;;;;;;12.50;8.05;;;;;;;19.75;68.98;99180.11;2174962;82;20992;-84
2022/07/08 02:58:04;;;;;;;15.78;7.55;;;;;;;19.83;69.13;99179.95;2175355;82;20972;-84
2022/07/08 03:01:05;;;;;;;24.18;6.47;;;;;;;19.86;68.95;99178.12;2175315;82;20969;-85
2022/07/08 03:04:05;;;;;;;36.38;8.48;;;;;;;19.96;68.45;99183.68;2175449;82;20949;-84
2022/07/08 03:07:07;;;;;;;29.27;8.20;;;;;;;20.07;67.76;99190.08;2175332;82;21360;-85
2022/07/08 03:10:06;;;;;;;81.02;11.05;;;;;;;20.21;67.68;99190.66;2175182;82;20961;-83
2022/07/08 03:13:06;;;;;;;62.83;9.58;;;;;;;20.28;66.96;99194.92;2174919;82;20961;-84
2022/07/08 03:16:11;;;;;;;42.15;8.80;;;;;;;20.30;65.87;99201.06;2175211;82;20937;-84
2022/07/08 03:19:09;;;;;;;11.73;6.70;;;;;;;20.19;65.67;99200.87;2162388;82;21000;-81
2022/07/08 03:22:09;;;;;;;13.83;7.65;;;;;;;19.70;62.90;99204.03;2174020;82;21055;-81
2022/07/08 03:25:10;;;;;;;12.13;7.60;;;;;;;18.83;63.53;99207.72;2174030;82;20965;-82
2022/07/08 03:28:10;;;;;;;12.78;8.05;;;;;;;18.17;64.77;99210.36;2173537;82;21029;-81
2022/07/08 03:31:14;;;;;;;11.03;7.08;;;;;;;17.71;66.13;99210.92;2173410;82;20929;-82
2022/07/08 03:34:14;;;;;;;12.00;6.65;;;;;;;17.37;67.12;99215.64;2173087;82;20957;-83
2022/07/08 03:37:14;;;;;;;9.88;6.22;;;;;;;17.14;68.04;99217.13;2173659;82;20968;-82
2022/07/08 03:43:34;;;;;;;8.33;5.33;;;;;;;16.79;69.59;99229.28;2172630;81;20945;-81
2022/07/08 03:46:34;;;;;;;22.73;6.42;;;;;;;16.69;69.99;99232.86;2172785;82;20976;-81
2022/07/08 03:49:35;;;;;;;11.30;5.42;;;;;;;16.62;71.34;99235.07;2172741;82;21060;-80
2022/07/08 03:52:35;;;;;;;270.82;21.90;;;;;;;16.59;71.34;99241.68;2172186;82;20937;-80
2022/07/08 03:55:36;;;;;;;16.42;5.85;;;;;;;16.56;71.58;99240.81;2171830;82;20984;-78
2022/07/08 03:58:36;;;;;;;10.20;5.20;;;;;;;16.52;72.19;99240.40;2170939;82;20901;-78
2022/07/08 04:01:36;;;;;;;10.95;5.35;;;;;;;16.52;72.35;99244.80;2171558;82;20999;-81
2022/07/08 04:04:37;;;;;;;22.60;6.53;;;;;;;16.53;72.49;99242.15;2171838;82;20929;-82
2022/07/08 04:07:37;;;;;;;10.00;4.90;;;;;;;16.54;73.05;99245.66;2171049;82;20957;-80
2022/07/08 04:10:37;;;;;;;5.55;4.30;;;;;;;16.49;72.94;99243.05;2171508;82;20992;-80
2022/07/08 04:13:38;;;;;;;8.10;4.65;;;;;;;16.50;73.24;99243.48;2172143;82;20952;-80
2022/07/08 04:16:38;;;;;;;14.85;5.58;;;;;;;16.52;73.46;99244.35;2171894;82;20940;-81
2022/07/08 04:19:39;;;;;;;11.35;5.00;;;;;;;16.54;73.33;99246.98;2171587;82;20996;-81
2022/07/08 04:22:39;;;;;;;17.30;5.42;;;;;;;16.55;73.67;99250.92;2172368;82;20921;-80
2022/07/08 04:25:39;;;;;;;9.53;6.20;;;;;;;16.58;74.07;99255.73;2171193;82;20993;-80
2022/07/08 04:28:40;;;;;;;12.93;6.28;;;;;;;16.53;74.14;99257.96;2171661;82;21024;-80
2022/07/08 04:31:40;;;;;;;9.40;5.80;;;;;;;16.53;74.16;99266.31;2172769;82;21555;-81
2022/07/08 04:34:41;;;;;;;7.15;5.37;;;;;;;16.56;74.46;99271.13;2172425;82;20996;-81
2022/07/08 04:37:41;;;;;;;7.28;4.97;;;;;;;16.60;74.53;99268.02;2172206;82;20984;-82
2022/07/08 04:40:42;;;;;;;19.23;5.72;;;;;;;16.67;74.50;99266.27;2172233;80;21000;-81
2022/07/08 04:43:45;;;;;;;7.50;5.55;;;;;;;16.71;74.37;99268.00;2172959;82;21372;-81
2022/07/08 04:46:42;;;;;;;8.88;5.75;;;;;;;16.80;74.27;99263.98;2171498;82;20929;-81
2022/07/08 04:49:43;;;;;;;8.38;5.83;;;;;;;16.91;74.18;99272.70;2171407;82;21392;-80
2022/07/08 04:52:43;;;;;;;7.22;5.30;;;;;;;16.96;74.07;99265.62;2170995;82;20987;-82
2022/07/08 04:55:44;;;;;;;6.72;6.00;;;;;;;17.06;73.83;99271.27;2170770;82;21016;-82
2022/07/08 04:58:44;;;;;;;8.00;5.85;;;;;;;17.11;73.56;99264.64;2171883;82;20952;-82
2022/07/08 05:01:44;;;;;;;9.25;5.75;;;;;;;17.22;73.53;99277.30;2172316;82;20988;-81
2022/07/08 05:04:45;;;;;;;14.65;6.47;;;;;;;17.30;73.28;99277.23;2172677;82;20958;-79
2022/07/08 05:07:47;;;;;;;10.35;6.35;;;;;;;17.26;73.08;99282.11;2171824;82;20909;-79
2022/07/08 05:10:46;;;;;;;7.67;6.58;;;;;;;17.27;73.24;99287.81;2172199;82;20932;-79
2022/07/08 05:13:46;;;;;;;8.75;6.53;;;;;;;17.30;73.63;99294.38;2172193;82;20962;-79
2022/07/08 05:16:46;;;;;;;10.23;6.33;;;;;;;17.30;73.59;99291.75;2171601;82;20988;-79
2022/07/08 05:19:47;;;;;;;10.28;6.35;;;;;;;17.27;73.71;99301.88;2172049;82;21332;-79
2022/07/08 05:22:47;;;;;;;8.55;6.60;;;;;;;17.28;73.95;99309.35;2172273;82;21059;-77
2022/07/08 05:25:48;;;;;;;6.80;6.15;;;;;;;17.28;74.13;99309.35;2171415;82;20901;-79
2022/07/08 05:28:48;;;;;;;9.43;6.42;;;;;;;17.30;74.19;99310.22;2171214;82;20932;-79
2022/07/08 05:31:53;;;;;;;9.43;6.45;;;;;;;17.41;74.23;99307.08;2171211;82;20972;-79
2022/07/08 05:34:49;;;;;;;7.95;5.75;;;;;;;17.50;73.46;99304.36;2171171;82;21622;-81
2022/07/08 05:37:50;;;;;;;11.00;6.53;;;;;;;17.57;73.39;99303.42;2171641;82;20948;-80
2022/07/08 05:40:50;;;;;;;6.75;6.15;;;;;;;17.66;73.55;99307.73;2172034;80;20944;-80
2022/07/08 05:43:50;;;;;;;10.43;6.03;;;;;;;17.69;73.65;99312.58;2171491;82;21312;-80
2022/07/08 05:46:51;;;;;;;6.47;5.53;;;;;;;17.83;73.42;99308.48;2171221;82;20984;-80
2022/07/08 05:49:51;;;;;;;8.65;5.67;;;;;;;17.95;73.07;99312.77;2172224;82;20925;-80
2022/07/08 05:52:52;;;;;;;6.62;5.60;;;;;;;18.11;72.89;99303.78;2172464;82;21016;-78
2022/07/08 05:55:52;;;;;;;11.10;6.35;;;;;;;18.30;72.57;99310.63;2172357;82;21012;-79
2022/07/08 05:58:52;;;;;;;10.05;6.62;;;;;;;18.41;71.84;99319.75;2171878;82;21379;-80
2022/07/08 06:01:53;;;;;;;6.50;5.83;;;;;;;18.47;71.73;99322.32;2171468;82;21051;-79
2022/07/08 06:04:53;;;;;;;7.58;6.40;;;;;;;18.64;71.16;99324.78;2171094;82;20968;-79
2022/07/08 06:07:54;;;;;;;7.45;6.22;;;;;;;18.68;71.02;99311.95;2172063;82;20973;-79
2022/07/08 06:10:56;;;;;;;6.62;6.03;;;;;;;18.80;70.84;99313.11;2171129;82;21028;-79
2022/07/08 06:13:54;;;;;;;11.40;5.65;;;;;;;18.96;69.99;99316.41;2171333;82;20944;-80
2022/07/08 06:16:55;;;;;;;11.33;5.53;;;;;;;19.39;69.03;99316.66;2171786;82;21632;-82
2022/07/08 06:19:55;;;;;;;6.80;5.28;;;;;;;19.68;68.00;99313.09;2173170;82;21020;-81
2022/07/08 06:22:56;;;;;;;9.18;5.05;;;;;;;19.72;67.70;99317.44;2171929;82;20938;-78
2022/07/08 06:25:56;;;;;;;7.15;5.28;;;;;;;19.75;67.67;99322.27;2172364;82;21036;-81
2022/07/08 06:28:56;;;;;;;9.95;5.55;;;;;;;19.73;67.31;99324.48;2173572;82;20980;-78
2022/07/08 06:31:57;;;;;;;6.00;5.47;;;;;;;19.67;67.62;99324.59;2171514;82;20964;-80
2022/07/08 06:34:57;;;;;;;6.75;5.67;;;;;;;19.69;67.49;99328.09;2171834;82;20964;-79
2022/07/08 06:37:58;;;;;;;7.03;6.05;;;;;;;19.68;67.49;99328.98;2173024;82;20938;-80
2022/07/08 06:40:58;;;;;;;11.28;5.75;;;;;;;19.80;67.04;99332.33;2172782;82;21032;-79
2022/07/08 06:43:58;;;;;;;11.38;5.65;;;;;;;19.99;66.78;99335.09;2187096;80;20984;-79
2022/07/08 06:47:01;;;;;;;17.93;6.47;;;;;;;20.23;66.77;99328.45;2187885;81;20979;-78
2022/07/08 06:50:02;;;;;;;7.45;6.03;;;;;;;20.30;66.40;99338.91;2188525;81;21673;-80
2022/07/08 06:53:02;;;;;;;7.67;6.37;;;;;;;20.40;65.77;99338.77;2188651;81;21390;-79
2022/07/08 06:56:03;;;;;;;6.40;5.80;;;;;;;20.34;65.40;99343.25;2188283;81;20976;-79
2022/07/08 06:59:06;;;;;;;6.37;5.80;;;;;;;20.30;65.61;99338.91;2188652;81;20987;-80
2022/07/08 07:02:03;;;;;;;6.00;5.25;;;;;;;20.28;65.65;99345.15;2188541;81;20924;-79
2022/07/08 07:05:04;;;;;;;8.53;5.97;;;;;;;20.44;65.54;99342.65;2189874;81;21017;-77
2022/07/08 07:08:04;;;;;;;6.62;5.95;;;;;;;20.68;65.58;99347.45;2189289;81;20994;-78
2022/07/08 07:11:05;;;;;;;6.22;5.72;;;;;;;21.01;64.93;99345.45;2188461;81;21271;-78
2022/07/08 07:14:05;;;;;;;8.68;5.90;;;;;;;21.17;64.55;99348.18;2188200;81;21047;-80
2022/07/08 07:17:06;;;;;;;6.15;5.65;;;;;;;21.10;63.70;99348.77;2188434;81;20901;-80
2022/07/08 07:20:06;;;;;;;6.40;5.85;;;;;;;20.99;62.60;99346.36;2188636;81;20916;-78
2022/07/08 07:23:06;;;;;;;6.25;5.65;;;;;;;20.95;62.48;99344.69;2186784;81;20992;-79
2022/07/08 07:26:07;;;;;;;7.35;6.28;;;;;;;20.84;62.91;99352.01;2186860;81;20944;-78
2022/07/08 07:29:07;;;;;;;744.92;66.53;;;;;;;20.99;62.34;99352.13;2187068;81;20909;-78
2022/07/08 07:32:08;;;;;;;7.28;6.53;;;;;;;21.15;62.72;99340.25;2187729;81;20932;-79
2022/07/08 07:35:08;;;;;;;5.30;4.95;;;;;;;21.59;61.90;99350.30;2187854;81;21386;-79
2022/07/08 07:38:08;;;;;;;13.32;6.08;;;;;;;22.15;60.23;99352.89;2187887;81;21004;-81
2022/07/08 07:41:09;;;;;;;5.85;4.35;;;;;;;22.52;59.56;99349.20;2188294;81;20956;-79
2022/07/08 07:44:15;;;;;;;6.60;4.97;;;;;;;22.57;58.04;99341.99;2170847;81;21039;-76
2022/07/08 07:47:15;;;;;;;6.25;5.35;;;;;;;22.70;58.53;99344.71;2171073;82;20948;-78
2022/07/08 07:50:16;;;;;;;5.97;4.70;;;;;;;22.75;57.66;99338.80;2172007;82;21341;-79
2022/07/08 07:53:16;;;;;;;6.17;4.37;;;;;;;22.83;56.94;99344.80;2171059;82;20952;-79
2022/07/08 07:56:17;;;;;;;6.83;4.53;;;;;;;22.99;56.86;99343.88;2171620;82;20938;-79
2022/07/08 07:59:17;;;;;;;6.17;4.42;;;;;;;23.03;56.34;99335.33;2172000;82;21392;-79
2022/07/08 08:02:17;;;;;;;4.97;3.87;;;;;;;23.14;55.88;99331.88;2171690;82;20921;-79
2022/07/08 08:05:18;;;;;;;5.12;4.22;;;;;;;23.41;55.41;99337.69;2172073;82;20937;-78
2022/07/08 08:08:18;;;;;;;5.75;4.37;;;;;;;23.83;54.10;99331.88;2172455;82;21681;-79
2022/07/08 08:11:18;;;;;;;4.53;4.10;;;;;;;24.09;54.07;99334.51;2171668;82;20964;-80
2022/07/08 08:14:19;;;;;;;5.08;3.77;;;;;;;24.13;53.51;99337.48;2171765;82;20976;-79
2022/07/08 08:17:19;;;;;;;7.55;4.22;;;;;;;24.23;53.26;99325.15;2171782;82;21417;-80
2022/07/08 08:20:22;;;;;;;4.40;4.00;;;;;;;24.37;52.61;99323.78;2171462;82;21000;-80
2022/07/08 08:23:23;;;;;;;7.72;4.28;;;;;;;24.80;51.34;99330.19;2171225;82;21407;-80
2022/07/08 08:26:23;;;;;;;4.50;3.67;;;;;;;24.53;50.41;99328.09;2171596;82;20968;-79
2022/07/08 08:29:24;;;;;;;3.47;3.20;;;;;;;24.00;50.25;99331.30;2172018;82;20945;-80
2022/07/08 08:32:24;;;;;;;6.62;3.85;;;;;;;23.58;51.54;99333.62;2171951;82;21373;-81
2022/07/08 08:35:25;;;;;;;5.35;4.10;;;;;;;23.32;53.11;99332.63;2171500;82;20965;-81
2022/07/08 08:38:25;;;;;;;7.15;4.22;;;;;;;23.12;53.68;99338.58;2171686;82;21051;-82
2022/07/08 08:41:25;;;;;;;9.13;4.50;;;;;;;23.18;54.54;99338.84;2171115;82;21827;-84
2022/07/08 08:44:26;;;;;;;7.55;4.20;;;;;;;23.51;54.50;99335.12;2187809;81;20996;-81
2022/07/08 08:47:26;;;;;;;15.03;4.65;;;;;;;23.75;53.02;99336.14;2187822;81;21933;-83
2022/07/08 08:53:47;;;;;;;4.90;3.90;;;;;;;23.76;51.70;99330.34;2188534;81;20956;-82
2022/07/08 08:56:46;;;;;;;4.70;3.65;;;;;;;24.17;52.23;99336.03;2188031;81;21067;-82
2022/07/08 08:59:49;;;;;;;6.08;4.10;;;;;;;24.47;51.16;99328.78;2186760;81;20936;-82
2022/07/08 09:02:49;;;;;;;4.10;3.35;;;;;;;24.59;50.31;99333.67;2187653;81;20944;-82
2022/07/08 09:05:50;;;;;;;3.80;3.40;;;;;;;24.67;50.44;99331.11;2188106;81;20925;-83
2022/07/08 09:08:50;;;;;;;66.72;9.08;;;;;;;24.68;51.16;99327.52;2188196;81;20976;-82
2022/07/08 09:11:51;;;;;;;5.47;3.55;;;;;;;24.68;50.35;99330.66;2188004;81;21014;-84
2022/07/08 09:14:51;;;;;;;3.83;2.70;;;;;;;23.77;51.33;99336.95;2188188;81;21406;-83
2022/07/08 09:17:51;;;;;;;6.35;3.10;;;;;;;23.12;51.67;99339.03;2188692;81;20897;-80
2022/07/08 09:20:52;;;;;;;3.95;2.95;;;;;;;22.77;52.80;99336.96;2187367;81;20971;-83
2022/07/08 09:23:53;;;;;;;2.75;2.55;;;;;;;22.60;53.66;99348.55;2187931;81;21002;-84
2022/07/08 09:26:53;;;;;;;22.80;4.03;;;;;;;22.66;53.80;99341.73;2188240;81;20937;-81
2022/07/08 09:29:53;;;;;;;6.58;2.70;;;;;;;23.07;54.06;99344.97;2188238;81;20958;-84
2022/07/08 09:32:53;;;;;;;4.83;2.60;;;;;;;23.45;53.84;99341.12;2188223;81;20972;-82
2022/07/08 09:35:54;;;;;;;4.17;3.00;;;;;;;23.80;52.26;99343.52;2188216;81;20967;-80
2022/07/08 09:38:54;;;;;;;4.58;3.00;;;;;;;23.87;52.39;99340.64;2187633;81;21285;-79
2022/07/08 09:41:55;;;;;;;3.85;2.67;;;;;;;23.94;51.66;99336.84;2188026;81;20955;-81
2022/07/08 09:44:56;;;;;;;2.70;2.20;;;;;;;23.97;51.99;99340.27;2189125;81;20987;-82
2022/07/08 09:47:57;;;;;;;4.12;2.35;;;;;;;23.92;50.95;99336.89;2189526;81;20979;-79
2022/07/08 09:50:57;;;;;;;2.15;2.00;;;;;;;23.64;50.40;99334.30;2189458;81;20987;-83
2022/07/08 09:53:57;;;;;;;3.42;2.37;;;;;;;23.35;50.88;99340.52;2189439;81;21049;-83
2022/07/08 09:56:58;;;;;;;2.87;2.20;;;;;;;23.35;51.74;99334.31;2189543;81;20988;-81
2022/07/08 09:59:58;;;;;;;3.20;2.05;;;;;;;23.40;51.90;99335.91;2189370;81;20932;-81
2022/07/08 10:02:59;;;;;;;1.90;1.80;;;;;;;24.07;50.47;99327.48;2189184;81;20960;-80
2022/07/08 10:05:59;;;;;;;2.10;1.90;;;;;;;24.54;48.64;99327.16;2190028;81;20940;-82
2022/07/08 10:08:59;;;;;;;1.90;1.60;;;;;;;25.52;49.13;99321.57;2189611;81;21246;-81
2022/07/08 10:12:00;;;;;;;3.83;1.80;;;;;;;25.76;45.61;99317.03;2188992;81;20964;-81
2022/07/08 10:15:00;;;;;;;1.98;1.80;;;;;;;25.69;46.09;99311.55;2188913;81;20964;-80
2022/07/08 10:18:01;;;;;;;2.85;1.50;;;;;;;25.54;46.57;99305.00;2189057;81;20936;-81
2022/07/08 10:21:01;;;;;;;3.83;1.65;;;;;;;25.08;47.84;99314.86;2189081;81;20998;-81
2022/07/08 10:24:01;;;;;;;1.67;1.57;;;;;;;24.55;48.54;99324.91;2189161;81;21462;-81
2022/07/08 10:27:02;;;;;;;2.45;1.60;;;;;;;23.83;50.08;99321.22;2188754;81;20928;-82
2022/07/08 10:30:02;;;;;;;14.18;1.90;;;;;;;23.29;51.27;99327.39;2188043;81;20932;-77
2022/07/08 10:33:03;;;;;;;6.15;2.05;;;;;;;22.98;54.37;99344.79;2188545;81;20968;-80
2022/07/08 10:36:03;;;;;;;4.28;1.87;;;;;;;22.70;56.67;99339.84;2188634;81;20940;-79
2022/07/08 10:39:03;;;;;;;1.98;1.75;;;;;;;22.60;59.41;99336.59;2188729;81;20932;-81
2022/07/08 10:42:04;;;;;;;3.05;1.87;;;;;;;22.69;60.46;99336.31;2188833;80;20920;-82
2022/07/08 10:45:04;;;;;;;4.72;1.72;;;;;;;23.06;60.69;99342.77;2141417;83;20912;-81
2022/07/08 10:48:05;;;;;;;7.42;2.02;;;;;;;23.43;58.05;99349.16;2142023;83;21371;-79
2022/07/08 10:51:05;;;;;;;2.33;2.02;;;;;;;23.87;56.78;99341.52;2141491;83;20939;-82
2022/07/08 10:54:05;;;;;;;2.50;2.30;;;;;;;23.92;55.72;99356.89;2141369;83;20923;-81
2022/07/08 10:57:06;;;;;;;2.70;2.50;;;;;;;23.67;56.13;99346.65;2140378;83;20943;-79
2022/07/08 11:00:06;;;;;;;7.47;2.52;;;;;;;23.27;55.98;99347.88;2140721;83;21315;-80
2022/07/08 11:03:07;;;;;;;4.05;2.80;;;;;;;23.26;57.23;99344.80;2141390;83;20967;-81
2022/07/08 11:06:07;;;;;;;2.85;2.22;;;;;;;23.75;54.93;99340.59;2141367;83;21002;-82
2022/07/08 11:09:07;;;;;;;3.90;1.92;;;;;;;23.99;54.06;99335.76;2141274;83;20966;-83
2022/07/08 11:12:11;;;;;;;3.40;3.10;;;;;;;24.44;51.88;99327.97;2141628;83;20943;-82
2022/07/08 11:15:11;;;;;;;3.20;3.00;;;;;;;24.84;50.63;99337.15;2141675;83;20899;-82
2022/07/08 11:18:11;;;;;;;4.53;2.75;;;;;;;24.75;51.50;99325.02;2141806;83;20978;-81
2022/07/08 11:21:12;;;;;;;4.58;2.70;;;;;;;24.38;52.74;99325.98;2141282;83;20994;-83
2022/07/08 11:24:15;;;;;;;2.33;2.12;;;;;;;24.00;54.36;99331.30;2142578;83;20904;-83
2022/07/08 11:27:16;;;;;;;2.65;1.60;;;;;;;23.39;55.03;99342.62;2143157;83;21022;-83
2022/07/08 11:30:16;;;;;;;5.75;2.17;;;;;;;23.35;53.01;99339.18;2142637;83;20979;-85
2022/07/08 11:33:17;;;;;;;2.35;1.90;;;;;;;23.48;54.44;99363.20;2142275;83;21542;-81
2022/07/08 11:36:17;;;;;;;1.60;1.60;;;;;;;23.66;53.04;99346.23;2142590;83;20959;-83
2022/07/08 11:39:17;;;;;;;1.70;1.60;;;;;;;22.99;53.33;99345.66;2142282;83;21426;-84
2022/07/08 11:42:18;;;;;;;1.60;1.50;;;;;;;22.32;55.56;99339.58;2142598;83;20974;-81
2022/07/08 11:45:18;;;;;;;4.55;2.20;;;;;;;22.11;56.20;99344.58;2188434;81;21045;-83
2022/07/08 11:48:19;;;;;;;5.87;2.20;;;;;;;21.89;57.18;99346.02;2189211;81;20940;-83
2022/07/08 11:51:19;;;;;;;7.45;2.10;;;;;;;21.80;57.61;99343.61;2188889;81;21280;-84
2022/07/08 11:54:19;;;;;;;2.20;1.98;;;;;;;21.69;58.56;99353.63;2189175;81;20932;-82
2022/07/08 11:57:20;;;;;;;2.42;2.20;;;;;;;21.67;58.38;99347.00;2187808;81;20945;-84
2022/07/08 12:00:20;;;;;;;2.92;2.47;;;;;;;21.60;59.86;99348.93;2187381;81;20908;-84
2022/07/08 12:03:21;;;;;;;4.58;2.47;;;;;;;21.65;59.49;99339.97;2187352;81;20956;-83
2022/07/08 12:06:21;;;;;;;5.55;2.92;;;;;;;21.82;60.44;99339.13;2187622;81;20984;-83
2022/07/08 12:09:25;;;;;;;4.87;2.75;;;;;;;22.28;60.27;99332.61;2187021;81;20956;-82
2022/07/08 12:12:25;;;;;;;3.27;3.00;;;;;;;22.54;59.60;99333.64;2186518;81;21396;-82
2022/07/08 12:15:25;;;;;;;10.48;4.22;;;;;;;22.50;58.67;99341.72;2186864;81;20964;-83
2022/07/08 12:18:26;;;;;;;3.00;2.70;;;;;;;22.51;58.32;99338.14;2187796;81;20944;-82
2022/07/08 12:21:26;;;;;;;3.50;2.52;;;;;;;22.50;57.55;99332.41;2187756;81;21459;-83
2022/07/08 12:24:29;;;;;;;4.30;2.58;;;;;;;22.38;56.49;99330.97;2169696;81;20936;-83
2022/07/08 12:27:30;;;;;;;2.90;2.70;;;;;;;22.28;57.74;99329.48;2186253;81;20964;-82
2022/07/08 12:30:30;;;;;;;4.05;2.40;;;;;;;22.15;58.56;99336.94;2186925;81;20956;-84
2022/07/08 12:33:32;;;;;;;12.05;2.25;;;;;;;21.92;59.09;99346.81;2186699;81;20960;-83
2022/07/08 12:36:32;;;;;;;7.78;1.92;;;;;;;21.37;57.34;99379.16;2187504;81;20940;-84
2022/07/08 12:39:32;;;;;;;16.62;2.80;;;;;;;20.73;60.25;99386.27;2187883;81;20972;-82
2022/07/08 12:42:33;;;;;;;7.42;2.60;;;;;;;20.08;65.70;99390.58;2189089;81;21035;-83
2022/07/08 12:45:33;;;;;;;7.22;2.40;;;;;;;19.35;67.28;99387.75;2172247;81;21000;-82
2022/07/08 12:48:33;;;;;;;5.87;2.92;;;;;;;18.98;68.95;99386.91;2172883;82;20894;-81
2022/07/08 12:51:40;;;;;;;8.90;2.47;;;;;;;19.08;69.87;99378.44;2173006;82;21405;-82
2022/07/08 12:54:37;;;;;;;;;;;;;;;19.51;69.98;99377.34;2163862;82;20977;-83
2022/07/08 12:57:38;;;;;;;6.72;2.25;;;;;;;20.00;68.90;99368.19;2170567;82;20093;-81
2022/07/08 13:00:38;;;;;;;2.92;1.87;;;;;;;19.89;67.54;99366.60;2170832;82;20968;-82
2022/07/08 13:03:38;;;;;;;2.90;2.35;;;;;;;19.53;67.60;99367.64;2170319;82;20957;-83
2022/07/08 13:06:39;;;;;;;3.80;2.00;;;;;;;19.30;68.45;99364.00;2171259;82;20936;-83
2022/07/08 13:09:42;;;;;;;2.63;2.40;;;;;;;19.31;69.22;99359.13;2170732;82;20981;-83
2022/07/08 13:12:42;;;;;;;4.80;2.20;;;;;;;19.31;70.54;99365.75;2170259;82;21379;-82
2022/07/08 13:15:43;;;;;;;3.85;2.62;;;;;;;19.35;70.07;99359.95;2171146;82;20968;-84
2022/07/08 13:18:43;;;;;;;8.98;3.10;;;;;;;19.34;70.91;99363.50;2170894;82;20953;-83
2022/07/08 13:21:43;;;;;;;3.40;3.08;;;;;;;19.39;71.51;99362.98;2170380;82;21024;-81
2022/07/08 13:24:44;;;;;;;4.30;3.27;;;;;;;19.58;72.59;99364.47;2170460;82;21073;-81
2022/07/08 13:27:45;;;;;;;4.90;4.00;;;;;;;19.84;73.79;99365.80;2170857;82;20968;-81
2022/07/08 13:30:45;;;;;;;4.25;3.67;;;;;;;20.00;73.82;99372.62;2170774;82;20941;-80
2022/07/08 13:33:48;;;;;;;4.05;3.70;;;;;;;20.20;73.34;99374.91;2170713;82;21366;-80
2022/07/08 13:36:46;;;;;;;5.60;3.67;;;;;;;20.41;73.00;99373.66;2170607;82;21004;-80
2022/07/08 13:39:46;;;;;;;3.77;3.20;;;;;;;20.63;72.69;99371.00;2171515;82;20965;-83
2022/07/08 13:42:47;;;;;;;3.60;3.30;;;;;;;20.85;71.00;99376.76;2170900;82;20980;-80
2022/07/08 13:45:47;;;;;;;3.87;2.83;;;;;;;20.75;70.22;99380.02;2171225;81;21000;-81
2022/07/08 13:48:47;;;;;;;3.10;2.85;;;;;;;20.66;69.71;99375.78;2171754;82;20992;-81
2022/07/08 13:51:48;;;;;;;5.00;4.10;;;;;;;20.64;70.01;99372.74;2172391;82;20933;-82
2022/07/08 13:54:48;;;;;;;4.45;3.10;;;;;;;20.69;70.99;99377.50;2171997;82;21297;-80
2022/07/08 13:57:49;;;;;;;4.72;3.60;;;;;;;20.72;70.21;99374.78;2172193;82;21017;-78
2022/07/08 14:00:49;;;;;;;17.98;10.72;;;;;;;20.64;69.74;99377.59;2172664;82;20995;-82
2022/07/08 14:03:49;;;;;;;14.00;11.78;;;;;;;20.61;69.57;99367.50;2171892;82;20933;-80
2022/07/08 14:06:50;;;;;;;7.45;5.33;;;;;;;20.61;70.49;99367.05;2172310;82;20985;-82
2022/07/08 14:09:50;;;;;;;23.10;18.80;;;;;;;20.61;70.01;99368.83;2172615;82;20972;-82
2022/07/08 14:12:51;;;;;;;24.72;15.60;;;;;;;20.64;69.67;99359.48;2172055;82;21004;-81
2022/07/08 14:15:51;;;;;;;56.77;32.30;;;;;;;20.65;69.79;99366.08;2172210;82;20980;-80